Kego, Minnesota
Current Conditions -  °F | °C
As of 11:36 PM on Tuesday 25 Nov 2014 (Local Time) from KXVG Reporting Station
Overcast Overcast  
Wind Chill: 18°   Ceiling: 3500
Heat Index: 18°   Visibility: 10mi
Dew Point: 10°   Wind: 0mph
Humidity: 73%   Direction: NA
Pressure: 30.04"   Gusts: NA
Location:  47.0632°N, 94.1534°W
Report Text: KXVG 260536Z AUTO 00000KT 10SM OVC035 M08/M12 A3004 RMK AO2
Loading
Personal Weather Stations






























Interactive Weather Map New forecast layout! Learn more

10-Day Weather Forecast

Advertisements
Track Severe Weather on mobile